createdAt,value
2017-11-18T00:00:48.536Z,17.80
2017-11-18T00:04:12.028Z,17.70
2017-11-18T00:07:35.553Z,17.70
2017-11-18T00:10:59.062Z,17.60
2017-11-18T00:14:22.563Z,17.70
2017-11-18T00:17:46.023Z,17.60
2017-11-18T00:21:09.524Z,17.60
2017-11-18T00:24:33.004Z,17.60
2017-11-18T00:27:56.465Z,17.60
2017-11-18T00:31:20.124Z,17.50
2017-11-18T00:34:43.563Z,17.50
2017-11-18T00:38:07.068Z,17.50
2017-11-18T00:41:30.550Z,17.40
2017-11-18T00:44:54.048Z,17.40
2017-11-18T00:48:17.545Z,17.40
2017-11-18T00:51:41.787Z,17.40
2017-11-18T00:55:05.242Z,17.30
2017-11-18T00:58:28.733Z,17.40
2017-11-18T01:01:52.233Z,17.40
2017-11-18T01:05:15.852Z,17.40
2017-11-18T01:08:39.483Z,17.30
2017-11-18T01:12:03.740Z,17.30
2017-11-18T01:15:27.209Z,17.30
2017-11-18T01:18:50.651Z,17.30
2017-11-18T01:22:14.112Z,17.20
2017-11-18T01:25:37.699Z,17.20
2017-11-18T01:29:01.152Z,17.20
2017-11-18T01:32:25.417Z,17.20
2017-11-18T01:35:49.033Z,17.10
2017-11-18T01:39:12.484Z,17.10
2017-11-18T01:42:35.955Z,17.10
2017-11-18T01:46:00.194Z,17.10
2017-11-18T01:49:23.680Z,17.10
2017-11-18T01:52:47.147Z,17.00
2017-11-18T01:56:10.587Z,17.00
2017-11-18T01:59:34.096Z,17.00
2017-11-18T02:02:57.938Z,17.00
2017-11-18T02:06:21.383Z,17.00
2017-11-18T02:09:45.635Z,17.00
2017-11-18T02:13:09.104Z,17.00
2017-11-18T02:16:32.569Z,17.00
2017-11-18T02:19:56.035Z,16.90
2017-11-18T02:23:19.623Z,17.00
2017-11-18T02:26:43.156Z,17.00
2017-11-18T02:30:06.759Z,16.90
2017-11-18T02:33:30.237Z,16.90
2017-11-18T02:36:53.703Z,16.90
2017-11-18T02:40:17.169Z,16.80
2017-11-18T02:43:40.615Z,16.80
2017-11-18T02:47:04.081Z,16.80
2017-11-18T02:50:27.536Z,16.80
2017-11-18T02:53:51.773Z,16.80
2017-11-18T02:57:15.215Z,16.80
2017-11-18T03:00:38.698Z,16.80
2017-11-18T03:04:02.193Z,16.70
2017-11-18T03:07:25.694Z,16.70
2017-11-18T03:10:49.148Z,16.70
2017-11-18T03:14:12.712Z,16.70
2017-11-18T03:17:36.172Z,16.70
2017-11-18T03:20:59.646Z,16.70
2017-11-18T03:24:23.126Z,16.60
2017-11-18T03:27:46.610Z,16.70
2017-11-18T03:31:10.081Z,16.60
2017-11-18T03:34:33.696Z,16.60
2017-11-18T03:37:57.919Z,16.50
2017-11-18T03:41:21.402Z,16.50
2017-11-18T03:44:44.870Z,16.50
2017-11-18T03:48:08.334Z,16.50
2017-11-18T03:51:31.919Z,16.50
2017-11-18T03:54:55.405Z,16.50
2017-11-18T03:58:18.881Z,16.50
2017-11-18T04:01:42.432Z,16.40
2017-11-18T04:05:05.907Z,16.40
2017-11-18T04:08:29.427Z,16.40
2017-11-18T04:11:53.699Z,16.30
2017-11-18T04:15:17.183Z,16.30
2017-11-18T04:18:40.675Z,16.40
2017-11-18T04:22:04.153Z,16.40
2017-11-18T04:25:27.757Z,16.30
2017-11-18T04:28:51.211Z,16.30
2017-11-18T04:32:14.692Z,16.30
2017-11-18T04:35:38.339Z,16.30
2017-11-18T04:39:01.813Z,16.30
2017-11-18T04:42:25.284Z,16.30
2017-11-18T04:45:48.795Z,16.30
2017-11-18T04:49:12.320Z,16.30
2017-11-18T04:52:36.570Z,16.30
2017-11-18T04:56:00.040Z,16.30
2017-11-18T04:59:24.316Z,16.30
2017-11-18T05:02:47.832Z,16.20
2017-11-18T05:06:12.082Z,16.30
2017-11-18T05:09:35.710Z,16.20
2017-11-18T05:12:59.951Z,16.30
2017-11-18T05:16:23.431Z,16.30
2017-11-18T05:19:46.929Z,16.40
2017-11-18T05:23:10.450Z,16.50
2017-11-18T05:26:33.903Z,16.50
2017-11-18T05:29:57.549Z,16.60
2017-11-18T05:33:21.816Z,16.60
2017-11-18T05:36:46.016Z,16.60
2017-11-18T05:40:09.478Z,16.60
2017-11-18T05:43:32.958Z,16.60
2017-11-18T05:46:56.456Z,16.60
2017-11-18T05:50:20.712Z,16.70
2017-11-18T05:53:44.270Z,16.70
2017-11-18T05:57:07.746Z,16.80
2017-11-18T06:00:31.205Z,16.90
2017-11-18T06:03:54.685Z,17.00
2017-11-18T06:07:18.176Z,17.10
2017-11-18T06:10:41.657Z,17.30
2017-11-18T06:14:05.135Z,17.40
2017-11-18T06:17:29.414Z,17.50
2017-11-18T06:20:52.918Z,17.50
2017-11-18T06:24:17.163Z,17.90
2017-11-18T06:27:40.724Z,17.90
2017-11-18T06:31:04.487Z,18.00
2017-11-18T06:34:27.951Z,18.10
2017-11-18T06:37:51.444Z,18.00
2017-11-18T06:41:14.896Z,18.00
2017-11-18T06:44:38.372Z,17.90
2017-11-18T06:48:01.844Z,17.90
2017-11-18T06:51:25.382Z,17.80
2017-11-18T06:54:49.618Z,17.70
2017-11-18T06:58:13.131Z,17.70
2017-11-18T07:01:36.592Z,17.60
2017-11-18T07:05:00.081Z,17.50
2017-11-18T07:08:24.332Z,17.60
2017-11-18T07:11:47.887Z,17.60
2017-11-18T07:15:12.105Z,18.10
2017-11-18T07:18:35.588Z,18.10
2017-11-18T07:21:59.064Z,18.40
2017-11-18T07:25:22.541Z,18.70
2017-11-18T07:28:45.999Z,19.10
2017-11-18T07:32:09.471Z,19.60
2017-11-18T07:35:34.481Z,20.50
2017-11-18T07:38:57.926Z,20.60
2017-11-18T07:42:21.404Z,20.90
2017-11-18T07:45:44.952Z,21.60
2017-11-18T07:49:08.426Z,21.90
2017-11-18T07:52:31.898Z,22.20
2017-11-18T07:55:55.421Z,22.50
2017-11-18T07:59:18.861Z,22.70
2017-11-18T08:02:42.336Z,22.90
2017-11-18T08:06:05.900Z,23.10
2017-11-18T08:09:29.457Z,23.30
2017-11-18T08:12:53.745Z,23.60
2017-11-18T08:16:17.979Z,23.80
2017-11-18T08:19:41.583Z,23.80
2017-11-18T08:23:05.175Z,23.80
2017-11-18T08:26:29.391Z,24.00
2017-11-18T08:29:52.878Z,24.00
2017-11-18T08:33:17.035Z,24.20
2017-11-18T08:36:41.678Z,24.30
2017-11-18T08:40:05.152Z,24.20
2017-11-18T08:43:28.748Z,24.40
2017-11-18T08:46:52.257Z,24.50
2017-11-18T08:50:15.776Z,24.50
2017-11-18T08:53:39.252Z,24.60
2017-11-18T08:57:02.709Z,24.60
2017-11-18T09:00:26.344Z,24.60
2017-11-18T09:03:49.812Z,24.70
2017-11-18T09:07:13.316Z,24.80
2017-11-18T09:10:36.965Z,24.70
2017-11-18T09:14:01.275Z,24.90
2017-11-18T09:17:24.822Z,24.90
2017-11-18T09:20:48.254Z,24.90
2017-11-18T09:24:11.765Z,25.00
2017-11-18T09:27:35.261Z,25.00
2017-11-18T09:30:58.729Z,24.90
2017-11-18T09:34:22.347Z,25.00
2017-11-18T09:37:45.806Z,25.00
2017-11-18T09:41:09.271Z,24.90
2017-11-18T09:44:32.728Z,25.00
2017-11-18T09:47:56.234Z,25.00
2017-11-18T09:51:19.692Z,24.90
2017-11-18T09:54:43.189Z,25.00
2017-11-18T09:58:06.700Z,24.90
2017-11-18T10:01:30.179Z,24.90
2017-11-18T10:04:53.661Z,25.00
2017-11-18T10:08:17.096Z,24.90
2017-11-18T10:11:40.588Z,24.90
2017-11-18T10:15:04.064Z,24.90
2017-11-18T10:18:27.549Z,25.00
2017-11-18T10:21:51.027Z,25.00
2017-11-18T10:25:15.308Z,25.10
2017-11-18T10:28:38.814Z,25.20
2017-11-18T10:32:02.404Z,25.10
2017-11-18T10:35:26.016Z,25.10
2017-11-18T10:38:49.525Z,25.20
2017-11-18T10:42:13.010Z,25.10
2017-11-18T10:45:37.825Z,25.10
2017-11-18T10:49:01.334Z,25.20
2017-11-18T10:52:24.874Z,25.20
2017-11-18T10:55:49.126Z,25.30
2017-11-18T10:59:12.598Z,25.30
2017-11-18T11:02:36.070Z,25.30
2017-11-18T11:05:59.549Z,25.30
2017-11-18T11:09:23.032Z,25.40
2017-11-18T11:12:46.485Z,25.40
2017-11-18T11:16:09.975Z,25.30
2017-11-18T11:19:33.470Z,25.40
2017-11-18T11:22:57.717Z,25.30
2017-11-18T11:26:21.204Z,25.30
2017-11-18T11:29:44.668Z,25.40
2017-11-18T11:33:08.247Z,25.40
2017-11-18T11:36:31.739Z,25.30
2017-11-18T11:39:56.012Z,25.30
2017-11-18T11:43:19.643Z,25.30
2017-11-18T11:46:43.150Z,25.30
2017-11-18T11:50:06.632Z,25.30
2017-11-18T11:53:30.112Z,25.40
2017-11-18T11:56:53.623Z,25.20
2017-11-18T12:00:17.275Z,25.20
2017-11-18T12:03:41.552Z,25.20
2017-11-18T12:07:05.047Z,25.20
2017-11-18T12:10:28.559Z,25.10
2017-11-18T12:13:52.032Z,25.20
2017-11-18T12:17:15.534Z,25.20
2017-11-18T12:20:39.016Z,25.00
2017-11-18T12:24:02.492Z,25.00
2017-11-18T12:27:25.975Z,25.10
2017-11-18T12:30:50.223Z,25.00
2017-11-18T12:34:13.678Z,25.00
2017-11-18T12:37:37.151Z,24.80
2017-11-18T12:41:00.684Z,24.90
2017-11-18T12:44:24.151Z,24.80
2017-11-18T12:47:48.531Z,24.60
2017-11-18T12:51:12.008Z,24.60
2017-11-18T12:54:35.493Z,24.70
2017-11-18T12:57:59.778Z,24.50
2017-11-18T13:01:23.275Z,24.50
2017-11-18T13:04:46.771Z,24.60
2017-11-18T13:08:10.293Z,24.60
2017-11-18T13:11:34.544Z,24.60
2017-11-18T13:14:58.182Z,24.60
2017-11-18T13:18:21.786Z,24.60
2017-11-18T13:21:45.360Z,24.50
2017-11-18T13:25:08.857Z,24.40
2017-11-18T13:28:32.359Z,24.50
2017-11-18T13:31:56.758Z,24.40
2017-11-18T13:35:21.044Z,24.40
2017-11-18T13:38:45.286Z,24.40
2017-11-18T13:42:08.788Z,24.40
2017-11-18T13:45:32.299Z,24.30
2017-11-18T13:48:56.597Z,24.20
2017-11-18T13:52:20.061Z,24.20
2017-11-18T13:55:43.604Z,24.30
2017-11-18T13:59:07.853Z,24.30
2017-11-18T14:02:31.594Z,24.30
2017-11-18T14:05:55.167Z,24.30
2017-11-18T14:09:18.668Z,24.20
2017-11-18T14:12:42.218Z,24.20
2017-11-18T14:16:05.822Z,24.30
2017-11-18T14:19:34.901Z,24.20
2017-11-18T14:22:58.493Z,24.00
2017-11-18T14:26:21.989Z,24.10
2017-11-18T14:29:45.479Z,24.10
2017-11-18T14:33:08.948Z,24.00
2017-11-18T14:36:32.553Z,23.90
2017-11-18T14:39:57.007Z,23.80
2017-11-18T14:43:20.556Z,23.80
2017-11-18T14:46:44.040Z,23.80
2017-11-18T14:50:08.564Z,23.70
2017-11-18T14:53:33.538Z,23.50
2017-11-18T14:56:56.988Z,23.50
2017-11-18T15:00:20.503Z,23.50
2017-11-18T15:03:43.982Z,23.50
2017-11-18T15:07:07.458Z,23.40
2017-11-18T15:10:31.108Z,23.30
2017-11-18T15:13:55.400Z,23.30
2017-11-18T15:21:22.947Z,23.30
2017-11-18T15:24:52.774Z,23.00
2017-11-18T15:28:33.248Z,23.00
2017-11-18T15:32:02.464Z,23.00
2017-11-18T15:35:28.488Z,23.10
2017-11-18T15:38:54.709Z,22.90
2017-11-18T15:42:18.959Z,23.00
2017-11-18T15:45:42.422Z,23.00
2017-11-18T15:49:11.587Z,23.10
2017-11-18T15:52:41.551Z,23.00
2017-11-18T15:56:05.821Z,22.90
2017-11-18T15:59:29.289Z,23.00
2017-11-18T16:02:55.317Z,23.00
2017-11-18T16:06:18.797Z,23.00
2017-11-18T16:09:42.342Z,22.90
2017-11-18T16:13:06.583Z,22.80
2017-11-18T16:16:30.077Z,22.80
2017-11-18T16:19:53.793Z,22.80
2017-11-18T16:23:17.535Z,22.80
2017-11-18T16:26:41.802Z,22.70
2017-11-18T16:30:09.771Z,22.70
2017-11-18T16:33:42.779Z,22.70
2017-11-18T16:37:07.268Z,22.70
2017-11-18T16:40:30.750Z,22.70
2017-11-18T16:43:54.251Z,22.60
2017-11-18T16:47:17.747Z,22.70
2017-11-18T16:50:41.248Z,22.70
2017-11-18T16:54:04.731Z,22.70
2017-11-18T16:57:28.212Z,22.60
2017-11-18T17:00:51.725Z,22.50
2017-11-18T17:04:16.017Z,22.60
2017-11-18T17:07:40.231Z,22.60
2017-11-18T17:11:03.743Z,22.60
2017-11-18T17:14:27.265Z,22.50
2017-11-18T17:17:50.721Z,22.40
2017-11-18T17:21:15.069Z,22.60
2017-11-18T17:24:38.538Z,22.60
2017-11-18T17:28:02.264Z,22.50
2017-11-18T17:31:26.520Z,22.30
2017-11-18T17:34:50.028Z,22.30
2017-11-18T17:38:13.669Z,22.50
2017-11-18T17:41:38.658Z,22.70
2017-11-18T17:45:02.127Z,22.70
2017-11-18T17:48:25.610Z,22.90
2017-11-18T17:51:49.090Z,23.10
2017-11-18T17:55:12.581Z,23.20
2017-11-18T17:58:36.026Z,23.30
2017-11-18T18:02:01.024Z,23.70
2017-11-18T18:05:24.528Z,23.70
2017-11-18T18:08:48.157Z,23.80
2017-11-18T18:12:11.641Z,24.00
2017-11-18T18:15:35.164Z,24.20
2017-11-18T18:18:59.453Z,24.50
2017-11-18T18:22:22.917Z,24.40
2017-11-18T18:25:46.393Z,24.40
2017-11-18T18:29:10.657Z,24.80
2017-11-18T18:32:34.135Z,24.70
2017-11-18T18:35:57.604Z,24.80
2017-11-18T18:39:22.610Z,25.00
2017-11-18T18:42:47.212Z,25.10
2017-11-18T18:46:10.718Z,25.10
2017-11-18T18:49:35.394Z,25.20
2017-11-18T18:52:58.953Z,25.20
2017-11-18T18:56:22.697Z,25.20
2017-11-18T18:59:46.212Z,25.20
2017-11-18T19:03:09.726Z,25.10
2017-11-18T19:06:33.235Z,25.20
2017-11-18T19:09:56.697Z,25.10
2017-11-18T19:13:20.209Z,25.10
2017-11-18T19:16:43.720Z,25.00
2017-11-18T19:20:07.217Z,24.80
2017-11-18T19:23:30.712Z,24.60
2017-11-18T19:26:54.276Z,24.40
2017-11-18T19:30:17.759Z,24.20
2017-11-18T19:33:41.247Z,24.30
2017-11-18T19:37:05.545Z,24.20
2017-11-18T19:40:29.191Z,24.10
2017-11-18T19:43:52.736Z,24.00
2017-11-18T19:47:16.179Z,24.10
2017-11-18T19:50:39.692Z,24.20
2017-11-18T19:54:04.641Z,24.10
2017-11-18T19:57:28.101Z,24.00
2017-11-18T20:00:51.612Z,24.00
2017-11-18T20:04:15.084Z,24.00
2017-11-18T20:07:38.652Z,24.00
2017-11-18T20:11:02.258Z,23.90
2017-11-18T20:14:25.805Z,23.90
2017-11-18T20:17:49.498Z,23.90
2017-11-18T20:21:13.044Z,23.90
2017-11-18T20:24:36.568Z,23.90
2017-11-18T20:28:00.076Z,24.00
2017-11-18T20:31:24.312Z,24.00
2017-11-18T20:34:47.796Z,24.00
2017-11-18T20:38:11.330Z,23.90
2017-11-18T20:41:35.608Z,24.00
2017-11-18T20:45:00.128Z,24.00
2017-11-18T20:48:23.600Z,24.00
2017-11-18T20:51:47.127Z,23.90
2017-11-18T20:55:10.687Z,23.80
2017-11-18T20:58:34.314Z,23.70
2017-11-18T21:01:58.823Z,23.60
2017-11-18T21:05:22.297Z,23.60
2017-11-18T21:08:45.894Z,23.60
2017-11-18T21:12:09.567Z,23.60
2017-11-18T21:15:33.093Z,23.50
2017-11-18T21:18:56.583Z,23.60
2017-11-18T21:22:20.178Z,23.60
2017-11-18T21:25:43.697Z,23.50
2017-11-18T21:29:07.155Z,23.50
2017-11-18T21:32:31.401Z,23.50
2017-11-18T21:35:54.904Z,23.50
2017-11-18T21:39:18.405Z,23.50
2017-11-18T21:42:41.885Z,23.40
2017-11-18T21:46:06.148Z,23.20
2017-11-18T21:49:29.665Z,23.20
2017-11-18T21:52:53.889Z,22.80
2017-11-18T21:56:17.488Z,22.80
2017-11-18T21:59:41.967Z,22.50
2017-11-18T22:03:05.433Z,22.50
2017-11-18T22:06:28.969Z,22.30
2017-11-18T22:09:53.212Z,21.80
2017-11-18T22:13:16.700Z,21.80
2017-11-18T22:16:41.705Z,21.30
2017-11-18T22:20:05.232Z,21.30
2017-11-18T22:23:28.716Z,21.10
2017-11-18T22:26:52.304Z,20.90
2017-11-18T22:30:15.809Z,20.70
2017-11-18T22:33:40.056Z,20.30
2017-11-18T22:37:03.640Z,20.30
2017-11-18T22:40:27.125Z,20.20
2017-11-18T22:43:50.615Z,20.20
2017-11-18T22:47:14.269Z,20.00
2017-11-18T22:50:37.721Z,19.80
2017-11-18T22:54:01.206Z,19.80
2017-11-18T22:57:24.680Z,19.60
2017-11-18T23:00:48.157Z,19.50
2017-11-18T23:04:11.730Z,19.40
2017-11-18T23:07:35.225Z,19.30
2017-11-18T23:10:58.714Z,19.30
2017-11-18T23:14:23.029Z,19.10
2017-11-18T23:17:46.516Z,19.10
2017-11-18T23:21:10.012Z,19.00
2017-11-18T23:24:33.656Z,18.90
2017-11-18T23:27:57.109Z,18.90
2017-11-18T23:31:20.778Z,18.80
2017-11-18T23:34:44.279Z,18.70
2017-11-18T23:38:07.851Z,18.70
2017-11-18T23:41:31.315Z,18.60
2017-11-18T23:44:54.779Z,18.60
2017-11-18T23:48:18.285Z,18.50
2017-11-18T23:51:41.794Z,18.50
2017-11-18T23:55:06.008Z,18.40
2017-11-18T23:58:29.489Z,18.30
